Argyle, Texas
Current Conditions -  °F | °C
As of 2:53 AM on Saturday 20 Dec 2014 (Local Time) from KDTO Reporting Station
Overcast Overcast  
Wind Chill: 43°   Ceiling: 2000
Heat Index: 45°   Visibility: 10mi
Dew Point: 41°   Wind: 5mph
Humidity: 86%   Direction: 360°N
Pressure: 30.22"   Gusts: NA
Location:  33.12°N, 97.18°W
Report Text: KDTO 200853Z AUTO 36004KT 10SM OVC020 07/05 A3022 RMK AO2 SLP232 T00720050 53001
Loading
Personal Weather Stations






























Interactive Weather Map New forecast layout! Learn more

10-Day Weather Forecast

Advertisements
Track Severe Weather on mobile